メインページ
METAR-TAF:

METAR-TAF

空港 :

Pittsfield Municipal Airport

Pittsfield, マサチューセッツ州, アメリカ合衆国

緯度: 42-25-38N, 経度: 073-17-21W, 海抜: 364m

現時点の気象観測

当レポートは11分前の15:54(UTC)に作成
無風
気温 -9°C
湿度 52%
気圧 1027 hPa
視程: 16.1km
高度8500ftの千切れ雲あり
高度11000ftの曇り

METAR: KPSF 181554Z AUTO 00000KT 10SM BKN085 OVC110 M09/M17 A3033 RMK AO2 SLP302 T10891172 $

時間: 11:05 (16:05 UTC)

予報

当レポートは4時間39分前の11:26(UTC)に作成
予報は18日の 12時(UTC)から 19日の 12時(UTC)まで有効
の風 kt
視程: 10km
高度12000ftの雲は散在している
高度25000ftの曇り
18日の 1600時(UTC)から
の風 kt
視程: 10km
高度10000ftの曇り
18日の 2000時(UTC)から
南/南東の風 6kt
視程: 3.2km
高度1500ftの曇り
小雪, 靄
18日の 2200時(UTC)から
南/南東の風 6kt
視程: 1.2km
高度500ftの
小雪, 靄
19日の 0300時(UTC)から
南/南東の風 6kt
視程: 4.8km
高度800ftの曇り

TAF: KPSF 181126Z 1812/1912 00000KT P6SM SCT120 OVC250 FM181600 00000KT P6SM OVC100 FM182000 16006KT 2SM -SN BR OVC015 FM182200 16006KT 3/4SM -SN BR VV005 FM190300 16006KT 3SM BR OVC008

4,000以上の空港の気象観測と天気予報(METAR報とTAF報)

利用可能な観測所は地図上に黄色い丸と赤い丸で示す。

丸の上にカーソルを重ねると観測所名を参照できる。

次にクリックすると気象観測と天気予報を参照できる。

マップの切り替え:黒色「×」印の緑ボタンをクリックして拡大、「-」印の緑ボタンをクリックして縮小、緑色の三角印をクリックして隣りの地図に切り替え


METAR-TAF: